sensor_id;sensor_type;location;lat;lon;timestamp;temperature;humidity
578;DHT22;275;48.492;9.214;2023-06-26T00:00:02;24.50;22.50
578;DHT22;275;48.492;9.214;2023-06-26T00:02:29;23.80;23.40
578;DHT22;275;48.492;9.214;2023-06-26T00:04:58;23.70;23.50
578;DHT22;275;48.492;9.214;2023-06-26T00:07:28;23.90;23.20
578;DHT22;275;48.492;9.214;2023-06-26T00:09:56;24.30;22.70
578;DHT22;275;48.492;9.214;2023-06-26T00:12:24;24.40;22.40
578;DHT22;275;48.492;9.214;2023-06-26T00:14:51;24.00;23.10
578;DHT22;275;48.492;9.214;2023-06-26T00:17:18;24.00;23.10
578;DHT22;275;48.492;9.214;2023-06-26T00:19:45;24.10;22.90
578;DHT22;275;48.492;9.214;2023-06-26T00:22:12;24.10;22.90
578;DHT22;275;48.492;9.214;2023-06-26T00:24:39;24.30;22.80
578;DHT22;275;48.492;9.214;2023-06-26T00:27:07;24.30;22.90
578;DHT22;275;48.492;9.214;2023-06-26T00:29:34;24.10;23.20
578;DHT22;275;48.492;9.214;2023-06-26T00:32:00;24.20;23.00
578;DHT22;275;48.492;9.214;2023-06-26T00:34:28;24.50;22.60
578;DHT22;275;48.492;9.214;2023-06-26T00:36:54;24.90;22.20
578;DHT22;275;48.492;9.214;2023-06-26T00:39:21;25.00;21.90
578;DHT22;275;48.492;9.214;2023-06-26T00:41:51;24.80;22.20
578;DHT22;275;48.492;9.214;2023-06-26T00:44:20;24.80;22.40
578;DHT22;275;48.492;9.214;2023-06-26T00:46:47;24.80;22.30
578;DHT22;275;48.492;9.214;2023-06-26T00:49:14;25.10;21.90
578;DHT22;275;48.492;9.214;2023-06-26T00:51:42;25.00;22.00
578;DHT22;275;48.492;9.214;2023-06-26T00:54:10;24.70;22.50
578;DHT22;275;48.492;9.214;2023-06-26T00:56:37;24.40;22.50
578;DHT22;275;48.492;9.214;2023-06-26T00:59:04;24.40;22.70
578;DHT22;275;48.492;9.214;2023-06-26T01:01:32;24.10;23.20
578;DHT22;275;48.492;9.214;2023-06-26T01:03:59;24.10;22.80
578;DHT22;275;48.492;9.214;2023-06-26T01:06:28;24.40;22.80
578;DHT22;275;48.492;9.214;2023-06-26T01:08:57;24.40;22.80
578;DHT22;275;48.492;9.214;2023-06-26T01:11:24;24.80;22.30
578;DHT22;275;48.492;9.214;2023-06-26T01:13:51;24.70;22.70
578;DHT22;275;48.492;9.214;2023-06-26T01:16:19;24.80;22.50
578;DHT22;275;48.492;9.214;2023-06-26T01:18:48;25.20;22.40
578;DHT22;275;48.492;9.214;2023-06-26T01:21:15;25.00;23.40
578;DHT22;275;48.492;9.214;2023-06-26T01:23:56;25.10;24.20
578;DHT22;275;48.492;9.214;2023-06-26T01:26:29;24.90;24.40
578;DHT22;275;48.492;9.214;2023-06-26T01:28:57;24.90;25.30
578;DHT22;275;48.492;9.214;2023-06-26T01:31:26;24.90;25.60
578;DHT22;275;48.492;9.214;2023-06-26T01:33:54;24.70;25.90
578;DHT22;275;48.492;9.214;2023-06-26T01:36:22;24.40;26.30
578;DHT22;275;48.492;9.214;2023-06-26T01:38:49;24.40;26.50
578;DHT22;275;48.492;9.214;2023-06-26T01:41:16;24.40;26.60
578;DHT22;275;48.492;9.214;2023-06-26T01:43:57;24.50;26.70
578;DHT22;275;48.492;9.214;2023-06-26T01:46:32;24.40;27.00
578;DHT22;275;48.492;9.214;2023-06-26T01:49:08;24.30;27.20
578;DHT22;275;48.492;9.214;2023-06-26T01:51:40;24.30;27.30
578;DHT22;275;48.492;9.214;2023-06-26T01:54:11;24.10;27.60
578;DHT22;275;48.492;9.214;2023-06-26T01:56:40;24.10;26.60
578;DHT22;275;48.492;9.214;2023-06-26T01:59:12;24.10;26.60
578;DHT22;275;48.492;9.214;2023-06-26T02:01:39;23.90;27.50
578;DHT22;275;48.492;9.214;2023-06-26T02:04:06;23.70;28.70
578;DHT22;275;48.492;9.214;2023-06-26T02:06:36;23.60;28.40
578;DHT22;275;48.492;9.214;2023-06-26T02:09:03;23.70;28.20
578;DHT22;275;48.492;9.214;2023-06-26T02:11:29;23.70;28.30
578;DHT22;275;48.492;9.214;2023-06-26T02:13:56;23.60;28.20
578;DHT22;275;48.492;9.214;2023-06-26T02:16:24;23.60;28.00
578;DHT22;275;48.492;9.214;2023-06-26T02:18:51;23.70;27.90
578;DHT22;275;48.492;9.214;2023-06-26T02:21:18;23.80;27.60
578;DHT22;275;48.492;9.214;2023-06-26T02:23:45;23.80;27.40
578;DHT22;275;48.492;9.214;2023-06-26T02:26:11;23.70;27.50
578;DHT22;275;48.492;9.214;2023-06-26T02:28:38;23.60;27.70
578;DHT22;275;48.492;9.214;2023-06-26T02:31:05;23.50;28.00
578;DHT22;275;48.492;9.214;2023-06-26T02:33:33;23.30;28.20
578;DHT22;275;48.492;9.214;2023-06-26T02:36:00;23.30;28.30
578;DHT22;275;48.492;9.214;2023-06-26T02:38:27;23.20;28.40
578;DHT22;275;48.492;9.214;2023-06-26T02:40:53;23.20;28.60
578;DHT22;275;48.492;9.214;2023-06-26T02:43:20;23.20;28.60
578;DHT22;275;48.492;9.214;2023-06-26T02:45:47;23.20;28.80
578;DHT22;275;48.492;9.214;2023-06-26T02:48:14;22.90;29.20
578;DHT22;275;48.492;9.214;2023-06-26T02:50:42;23.10;29.10
578;DHT22;275;48.492;9.214;2023-06-26T02:53:11;22.80;29.60
578;DHT22;275;48.492;9.214;2023-06-26T02:55:38;22.80;29.70
578;DHT22;275;48.492;9.214;2023-06-26T02:58:05;22.80;29.60
578;DHT22;275;48.492;9.214;2023-06-26T03:00:32;22.90;29.50
578;DHT22;275;48.492;9.214;2023-06-26T03:02:58;22.70;29.80
578;DHT22;275;48.492;9.214;2023-06-26T03:05:25;22.70;29.70
578;DHT22;275;48.492;9.214;2023-06-26T03:07:53;22.80;29.70
578;DHT22;275;48.492;9.214;2023-06-26T03:10:20;22.80;29.60
578;DHT22;275;48.492;9.214;2023-06-26T03:12:47;22.80;29.20
578;DHT22;275;48.492;9.214;2023-06-26T03:15:14;22.80;29.30
578;DHT22;275;48.492;9.214;2023-06-26T03:17:41;22.70;29.50
578;DHT22;275;48.492;9.214;2023-06-26T03:20:08;22.40;29.70
578;DHT22;275;48.492;9.214;2023-06-26T03:22:35;22.10;30.00
578;DHT22;275;48.492;9.214;2023-06-26T03:25:04;21.80;30.10
578;DHT22;275;48.492;9.214;2023-06-26T03:27:31;21.90;30.00
578;DHT22;275;48.492;9.214;2023-06-26T03:29:58;22.00;30.00
578;DHT22;275;48.492;9.214;2023-06-26T03:32:25;22.20;29.80
578;DHT22;275;48.492;9.214;2023-06-26T03:34:51;22.40;29.00
578;DHT22;275;48.492;9.214;2023-06-26T03:37:19;22.30;29.30
578;DHT22;275;48.492;9.214;2023-06-26T03:39:46;22.60;28.50
578;DHT22;275;48.492;9.214;2023-06-26T03:42:14;22.60;28.50
578;DHT22;275;48.492;9.214;2023-06-26T03:44:41;22.80;28.00
578;DHT22;275;48.492;9.214;2023-06-26T03:47:08;22.50;28.20
578;DHT22;275;48.492;9.214;2023-06-26T03:49:35;22.60;28.80
578;DHT22;275;48.492;9.214;2023-06-26T03:52:01;22.20;29.70
578;DHT22;275;48.492;9.214;2023-06-26T03:54:28;22.10;29.60
578;DHT22;275;48.492;9.214;2023-06-26T03:56:55;22.30;29.30
578;DHT22;275;48.492;9.214;2023-06-26T03:59:23;22.60;28.20
578;DHT22;275;48.492;9.214;2023-06-26T04:01:50;22.80;28.10
578;DHT22;275;48.492;9.214;2023-06-26T04:04:17;22.60;28.20
578;DHT22;275;48.492;9.214;2023-06-26T04:06:44;22.70;27.80
578;DHT22;275;48.492;9.214;2023-06-26T04:09:11;23.00;27.70
578;DHT22;275;48.492;9.214;2023-06-26T04:11:39;22.90;28.00
578;DHT22;275;48.492;9.214;2023-06-26T04:14:05;23.00;27.80
578;DHT22;275;48.492;9.214;2023-06-26T04:16:34;23.00;27.90
578;DHT22;275;48.492;9.214;2023-06-26T04:19:00;22.80;28.20
578;DHT22;275;48.492;9.214;2023-06-26T04:21:28;23.00;27.90
578;DHT22;275;48.492;9.214;2023-06-26T04:23:55;23.50;27.00
578;DHT22;275;48.492;9.214;2023-06-26T04:26:21;23.90;26.30
578;DHT22;275;48.492;9.214;2023-06-26T04:28:48;24.40;25.70
578;DHT22;275;48.492;9.214;2023-06-26T04:31:15;24.80;25.00
578;DHT22;275;48.492;9.214;2023-06-26T04:33:43;25.40;24.70
578;DHT22;275;48.492;9.214;2023-06-26T04:36:10;25.70;23.70
578;DHT22;275;48.492;9.214;2023-06-26T04:38:37;26.10;23.00
578;DHT22;275;48.492;9.214;2023-06-26T04:41:04;26.60;22.40
578;DHT22;275;48.492;9.214;2023-06-26T04:43:31;26.50;22.60
578;DHT22;275;48.492;9.214;2023-06-26T04:45:57;26.60;22.50
578;DHT22;275;48.492;9.214;2023-06-26T04:48:24;26.90;22.50
578;DHT22;275;48.492;9.214;2023-06-26T04:50:54;27.00;22.90
578;DHT22;275;48.492;9.214;2023-06-26T04:53:21;27.20;22.80
578;DHT22;275;48.492;9.214;2023-06-26T04:55:49;27.40;22.50
578;DHT22;275;48.492;9.214;2023-06-26T04:58:16;27.00;22.90
578;DHT22;275;48.492;9.214;2023-06-26T05:00:42;27.10;22.70
578;DHT22;275;48.492;9.214;2023-06-26T05:03:09;27.10;22.80
578;DHT22;275;48.492;9.214;2023-06-26T05:05:36;27.40;22.40
578;DHT22;275;48.492;9.214;2023-06-26T05:08:18;27.10;22.80
578;DHT22;275;48.492;9.214;2023-06-26T05:10:45;26.60;22.90
578;DHT22;275;48.492;9.214;2023-06-26T05:13:12;26.40;23.50
578;DHT22;275;48.492;9.214;2023-06-26T05:15:40;27.20;23.00
578;DHT22;275;48.492;9.214;2023-06-26T05:18:08;27.40;22.80
578;DHT22;275;48.492;9.214;2023-06-26T05:20:35;27.70;22.60
578;DHT22;275;48.492;9.214;2023-06-26T05:23:02;28.70;21.10
578;DHT22;275;48.492;9.214;2023-06-26T05:25:31;29.70;19.90
578;DHT22;275;48.492;9.214;2023-06-26T05:28:00;30.60;19.00
578;DHT22;275;48.492;9.214;2023-06-26T05:30:27;30.50;18.60
578;DHT22;275;48.492;9.214;2023-06-26T05:32:57;30.60;18.50
578;DHT22;275;48.492;9.214;2023-06-26T05:35:28;30.80;18.20
578;DHT22;275;48.492;9.214;2023-06-26T05:37:56;31.10;17.60
578;DHT22;275;48.492;9.214;2023-06-26T05:40:24;31.10;17.50
578;DHT22;275;48.492;9.214;2023-06-26T05:42:53;31.00;17.70
578;DHT22;275;48.492;9.214;2023-06-26T05:45:20;30.80;18.20
578;DHT22;275;48.492;9.214;2023-06-26T05:47:46;30.50;18.80
578;DHT22;275;48.492;9.214;2023-06-26T05:50:17;31.00;18.40
578;DHT22;275;48.492;9.214;2023-06-26T05:52:44;31.00;18.30
578;DHT22;275;48.492;9.214;2023-06-26T05:55:13;31.30;17.80
578;DHT22;275;48.492;9.214;2023-06-26T05:57:40;31.50;17.40
578;DHT22;275;48.492;9.214;2023-06-26T06:00:10;31.80;16.80
578;DHT22;275;48.492;9.214;2023-06-26T06:02:37;32.50;16.30
578;DHT22;275;48.492;9.214;2023-06-26T06:05:04;32.60;16.10
578;DHT22;275;48.492;9.214;2023-06-26T06:07:32;32.90;15.80
578;DHT22;275;48.492;9.214;2023-06-26T06:09:59;33.40;15.40
578;DHT22;275;48.492;9.214;2023-06-26T06:12:26;33.80;15.10
578;DHT22;275;48.492;9.214;2023-06-26T06:14:53;34.40;14.60
578;DHT22;275;48.492;9.214;2023-06-26T06:17:21;34.40;14.50
578;DHT22;275;48.492;9.214;2023-06-26T06:19:48;33.70;15.00
578;DHT22;275;48.492;9.214;2023-06-26T06:22:15;32.90;15.90
578;DHT22;275;48.492;9.214;2023-06-26T06:24:43;31.30;17.40
578;DHT22;275;48.492;9.214;2023-06-26T06:27:10;30.50;18.90
578;DHT22;275;48.492;9.214;2023-06-26T06:29:37;30.00;19.40
578;DHT22;275;48.492;9.214;2023-06-26T06:32:04;31.00;19.20
578;DHT22;275;48.492;9.214;2023-06-26T06:34:32;32.20;17.40
578;DHT22;275;48.492;9.214;2023-06-26T06:36:59;33.10;16.50
578;DHT22;275;48.492;9.214;2023-06-26T06:39:26;33.90;15.50
578;DHT22;275;48.492;9.214;2023-06-26T06:41:53;34.50;15.00
578;DHT22;275;48.492;9.214;2023-06-26T06:44:20;35.50;14.00
578;DHT22;275;48.492;9.214;2023-06-26T06:46:46;35.40;13.80
578;DHT22;275;48.492;9.214;2023-06-26T06:49:13;35.50;13.50
578;DHT22;275;48.492;9.214;2023-06-26T06:51:41;35.10;14.70
578;DHT22;275;48.492;9.214;2023-06-26T06:54:08;34.40;14.50
578;DHT22;275;48.492;9.214;2023-06-26T06:56:35;33.70;15.40
578;DHT22;275;48.492;9.214;2023-06-26T06:59:02;33.30;15.80
578;DHT22;275;48.492;9.214;2023-06-26T07:01:29;32.80;16.20
578;DHT22;275;48.492;9.214;2023-06-26T07:03:55;31.90;17.30
578;DHT22;275;48.492;9.214;2023-06-26T07:06:23;31.10;18.20
578;DHT22;275;48.492;9.214;2023-06-26T07:08:51;29.80;20.20
578;DHT22;275;48.492;9.214;2023-06-26T07:11:18;29.80;20.40
578;DHT22;275;48.492;9.214;2023-06-26T07:13:44;28.80;21.70
578;DHT22;275;48.492;9.214;2023-06-26T07:16:11;29.20;21.30
578;DHT22;275;48.492;9.214;2023-06-26T07:18:40;29.80;20.50
578;DHT22;275;48.492;9.214;2023-06-26T07:21:07;30.10;20.00
578;DHT22;275;48.492;9.214;2023-06-26T07:23:34;30.90;19.30
578;DHT22;275;48.492;9.214;2023-06-26T07:26:02;33.10;17.30
578;DHT22;275;48.492;9.214;2023-06-26T07:28:29;34.90;14.90
578;DHT22;275;48.492;9.214;2023-06-26T07:30:56;35.60;13.00
578;DHT22;275;48.492;9.214;2023-06-26T07:33:22;34.50;13.80
578;DHT22;275;48.492;9.214;2023-06-26T07:35:50;33.80;14.30
578;DHT22;275;48.492;9.214;2023-06-26T07:38:16;34.90;13.80
578;DHT22;275;48.492;9.214;2023-06-26T07:40:43;36.90;11.90
578;DHT22;275;48.492;9.214;2023-06-26T07:43:11;38.00;10.60
578;DHT22;275;48.492;9.214;2023-06-26T07:45:38;38.20;10.30
578;DHT22;275;48.492;9.214;2023-06-26T07:48:06;39.50;9.10
578;DHT22;275;48.492;9.214;2023-06-26T07:50:32;39.80;8.70
578;DHT22;275;48.492;9.214;2023-06-26T07:52:59;40.00;8.50
578;DHT22;275;48.492;9.214;2023-06-26T07:55:26;38.70;8.80
578;DHT22;275;48.492;9.214;2023-06-26T07:57:53;37.50;10.20
578;DHT22;275;48.492;9.214;2023-06-26T08:00:22;37.10;10.40
578;DHT22;275;48.492;9.214;2023-06-26T08:02:49;36.50;11.00
578;DHT22;275;48.492;9.214;2023-06-26T08:05:16;36.50;11.10
578;DHT22;275;48.492;9.214;2023-06-26T08:07:43;37.60;10.30
578;DHT22;275;48.492;9.214;2023-06-26T08:10:10;36.20;10.90
578;DHT22;275;48.492;9.214;2023-06-26T08:12:36;36.00;11.30
578;DHT22;275;48.492;9.214;2023-06-26T08:15:06;38.20;9.80
578;DHT22;275;48.492;9.214;2023-06-26T08:17:35;39.10;8.10
578;DHT22;275;48.492;9.214;2023-06-26T08:20:02;38.70;8.80
578;DHT22;275;48.492;9.214;2023-06-26T08:22:30;39.10;8.70
578;DHT22;275;48.492;9.214;2023-06-26T08:24:57;40.00;8.10
578;DHT22;275;48.492;9.214;2023-06-26T08:27:24;41.20;7.20
578;DHT22;275;48.492;9.214;2023-06-26T08:29:51;41.20;7.10
578;DHT22;275;48.492;9.214;2023-06-26T08:32:17;40.00;7.50
578;DHT22;275;48.492;9.214;2023-06-26T08:34:46;39.20;8.40
578;DHT22;275;48.492;9.214;2023-06-26T08:37:12;39.60;8.00
578;DHT22;275;48.492;9.214;2023-06-26T08:39:39;40.20;8.10
578;DHT22;275;48.492;9.214;2023-06-26T08:42:06;41.60;6.40
578;DHT22;275;48.492;9.214;2023-06-26T08:44:33;41.80;6.10
578;DHT22;275;48.492;9.214;2023-06-26T08:47:00;42.20;5.80
578;DHT22;275;48.492;9.214;2023-06-26T08:49:33;41.20;6.30
578;DHT22;275;48.492;9.214;2023-06-26T08:52:08;40.20;7.40
578;DHT22;275;48.492;9.214;2023-06-26T08:54:45;40.70;7.10
578;DHT22;275;48.492;9.214;2023-06-26T08:57:15;41.00;6.70
578;DHT22;275;48.492;9.214;2023-06-26T08:59:43;40.50;6.70
578;DHT22;275;48.492;9.214;2023-06-26T09:02:10;40.30;7.20
578;DHT22;275;48.492;9.214;2023-06-26T09:04:37;40.30;7.50
578;DHT22;275;48.492;9.214;2023-06-26T09:07:07;40.70;6.50
578;DHT22;275;48.492;9.214;2023-06-26T09:09:33;40.70;6.50
578;DHT22;275;48.492;9.214;2023-06-26T09:12:01;42.00;5.80
578;DHT22;275;48.492;9.214;2023-06-26T09:14:29;42.20;5.30
578;DHT22;275;48.492;9.214;2023-06-26T09:16:56;42.00;5.30
578;DHT22;275;48.492;9.214;2023-06-26T09:19:23;42.30;5.10
578;DHT22;275;48.492;9.214;2023-06-26T09:21:50;42.30;5.30
578;DHT22;275;48.492;9.214;2023-06-26T09:24:19;42.30;4.90
578;DHT22;275;48.492;9.214;2023-06-26T09:26:46;42.30;5.50
578;DHT22;275;48.492;9.214;2023-06-26T09:29:14;43.60;4.70
578;DHT22;275;48.492;9.214;2023-06-26T09:31:41;44.70;3.50
578;DHT22;275;48.492;9.214;2023-06-26T09:34:08;45.60;3.10
578;DHT22;275;48.492;9.214;2023-06-26T09:36:35;43.40;4.20
578;DHT22;275;48.492;9.214;2023-06-26T09:39:03;43.70;3.90
578;DHT22;275;48.492;9.214;2023-06-26T09:41:35;44.60;3.50
578;DHT22;275;48.492;9.214;2023-06-26T09:44:04;42.50;4.30
578;DHT22;275;48.492;9.214;2023-06-26T09:46:33;40.90;5.50
578;DHT22;275;48.492;9.214;2023-06-26T09:49:02;40.60;6.00
578;DHT22;275;48.492;9.214;2023-06-26T09:51:30;41.10;5.00
578;DHT22;275;48.492;9.214;2023-06-26T09:53:58;42.50;3.90
578;DHT22;275;48.492;9.214;2023-06-26T09:56:25;43.10;4.00
578;DHT22;275;48.492;9.214;2023-06-26T09:58:55;43.80;3.40
578;DHT22;275;48.492;9.214;2023-06-26T10:01:23;43.40;3.90
578;DHT22;275;48.492;9.214;2023-06-26T10:03:50;43.20;4.00
578;DHT22;275;48.492;9.214;2023-06-26T10:06:19;41.70;4.90
578;DHT22;275;48.492;9.214;2023-06-26T10:08:49;39.50;6.20
578;DHT22;275;48.492;9.214;2023-06-26T10:11:19;39.10;6.90
578;DHT22;275;48.492;9.214;2023-06-26T10:13:50;38.50;7.70
578;DHT22;275;48.492;9.214;2023-06-26T10:16:23;39.20;7.30
578;DHT22;275;48.492;9.214;2023-06-26T10:18:53;38.50;7.90
578;DHT22;275;48.492;9.214;2023-06-26T10:21:22;38.80;7.50
578;DHT22;275;48.492;9.214;2023-06-26T10:23:51;39.80;6.90
578;DHT22;275;48.492;9.214;2023-06-26T10:26:20;39.50;6.60
578;DHT22;275;48.492;9.214;2023-06-26T10:28:48;40.00;6.60
578;DHT22;275;48.492;9.214;2023-06-26T10:31:20;39.60;7.00
578;DHT22;275;48.492;9.214;2023-06-26T10:33:48;39.80;7.20
578;DHT22;275;48.492;9.214;2023-06-26T10:36:16;41.90;5.30
578;DHT22;275;48.492;9.214;2023-06-26T10:38:51;40.70;6.10
578;DHT22;275;48.492;9.214;2023-06-26T10:41:22;40.80;5.90
578;DHT22;275;48.492;9.214;2023-06-26T10:43:50;41.30;5.40
578;DHT22;275;48.492;9.214;2023-06-26T10:46:19;41.90;4.80
578;DHT22;275;48.492;9.214;2023-06-26T10:48:57;40.20;5.00
578;DHT22;275;48.492;9.214;2023-06-26T10:51:25;39.50;5.80
578;DHT22;275;48.492;9.214;2023-06-26T10:53:54;37.70;7.30
578;DHT22;275;48.492;9.214;2023-06-26T10:56:21;36.80;8.40
578;DHT22;275;48.492;9.214;2023-06-26T10:59:18;36.80;8.50
578;DHT22;275;48.492;9.214;2023-06-26T11:01:54;36.50;8.80
578;DHT22;275;48.492;9.214;2023-06-26T11:04:37;35.40;9.90
578;DHT22;275;48.492;9.214;2023-06-26T11:07:18;36.10;9.70
578;DHT22;275;48.492;9.214;2023-06-26T11:09:56;39.00;7.10
578;DHT22;275;48.492;9.214;2023-06-26T11:12:34;40.70;5.80
578;DHT22;275;48.492;9.214;2023-06-26T11:15:02;42.40;4.50
578;DHT22;275;48.492;9.214;2023-06-26T11:17:31;39.70;6.60
578;DHT22;275;48.492;9.214;2023-06-26T11:19:58;39.10;7.20
578;DHT22;275;48.492;9.214;2023-06-26T11:22:26;37.80;8.60
578;DHT22;275;48.492;9.214;2023-06-26T11:24:54;36.80;9.80
578;DHT22;275;48.492;9.214;2023-06-26T11:27:31;35.40;11.40
578;DHT22;275;48.492;9.214;2023-06-26T11:29:58;35.80;11.30
578;DHT22;275;48.492;9.214;2023-06-26T11:32:26;38.20;9.60
578;DHT22;275;48.492;9.214;2023-06-26T11:34:55;39.50;7.90
578;DHT22;275;48.492;9.214;2023-06-26T11:37:22;39.90;7.60
578;DHT22;275;48.492;9.214;2023-06-26T11:39:49;41.00;6.30
578;DHT22;275;48.492;9.214;2023-06-26T11:42:16;41.00;6.10
578;DHT22;275;48.492;9.214;2023-06-26T11:44:43;41.30;6.30
578;DHT22;275;48.492;9.214;2023-06-26T11:47:15;41.60;6.40
578;DHT22;275;48.492;9.214;2023-06-26T11:49:45;42.10;6.30
578;DHT22;275;48.492;9.214;2023-06-26T11:52:14;42.80;5.50
578;DHT22;275;48.492;9.214;2023-06-26T11:54:41;43.40;5.20
578;DHT22;275;48.492;9.214;2023-06-26T11:57:08;43.10;5.60
578;DHT22;275;48.492;9.214;2023-06-26T11:59:40;43.00;5.70
578;DHT22;275;48.492;9.214;2023-06-26T12:02:07;43.00;5.80
578;DHT22;275;48.492;9.214;2023-06-26T12:04:36;42.90;5.60
578;DHT22;275;48.492;9.214;2023-06-26T12:07:06;43.20;5.50
578;DHT22;275;48.492;9.214;2023-06-26T12:09:38;43.10;5.50
578;DHT22;275;48.492;9.214;2023-06-26T12:12:07;40.50;7.10
578;DHT22;275;48.492;9.214;2023-06-26T12:14:34;38.70;8.90
578;DHT22;275;48.492;9.214;2023-06-26T12:17:05;39.10;8.70
578;DHT22;275;48.492;9.214;2023-06-26T12:19:34;40.60;7.60
578;DHT22;275;48.492;9.214;2023-06-26T12:22:06;41.50;6.70
578;DHT22;275;48.492;9.214;2023-06-26T12:24:35;41.10;7.00
578;DHT22;275;48.492;9.214;2023-06-26T12:27:02;41.40;6.90
578;DHT22;275;48.492;9.214;2023-06-26T12:29:31;41.70;6.60
578;DHT22;275;48.492;9.214;2023-06-26T12:31:59;41.20;6.80
578;DHT22;275;48.492;9.214;2023-06-26T12:34:28;40.80;7.10
578;DHT22;275;48.492;9.214;2023-06-26T12:37:00;39.70;8.40
578;DHT22;275;48.492;9.214;2023-06-26T12:39:27;39.50;8.50
578;DHT22;275;48.492;9.214;2023-06-26T12:41:57;39.10;8.60
578;DHT22;275;48.492;9.214;2023-06-26T12:44:27;38.10;10.00
578;DHT22;275;48.492;9.214;2023-06-26T12:46:56;38.10;9.80
578;DHT22;275;48.492;9.214;2023-06-26T12:49:30;36.50;11.20
578;DHT22;275;48.492;9.214;2023-06-26T12:51:58;36.00;12.00
578;DHT22;275;48.492;9.214;2023-06-26T12:54:24;36.00;11.90
578;DHT22;275;48.492;9.214;2023-06-26T12:56:51;35.30;12.80
578;DHT22;275;48.492;9.214;2023-06-26T12:59:19;34.60;13.60
578;DHT22;275;48.492;9.214;2023-06-26T13:01:46;34.40;14.00
578;DHT22;275;48.492;9.214;2023-06-26T13:04:13;34.00;14.60
578;DHT22;275;48.492;9.214;2023-06-26T13:06:40;33.90;15.20
578;DHT22;275;48.492;9.214;2023-06-26T13:09:07;34.00;15.50
578;DHT22;275;48.492;9.214;2023-06-26T13:11:36;34.00;15.20
578;DHT22;275;48.492;9.214;2023-06-26T13:14:02;33.60;15.40
578;DHT22;275;48.492;9.214;2023-06-26T13:16:31;33.50;15.80
578;DHT22;275;48.492;9.214;2023-06-26T13:18:58;32.90;16.80
578;DHT22;275;48.492;9.214;2023-06-26T13:21:25;33.10;17.10
578;DHT22;275;48.492;9.214;2023-06-26T13:23:52;33.80;16.40
578;DHT22;275;48.492;9.214;2023-06-26T13:26:19;34.00;16.10
578;DHT22;275;48.492;9.214;2023-06-26T13:28:47;33.50;16.30
578;DHT22;275;48.492;9.214;2023-06-26T13:31:14;33.30;16.90
578;DHT22;275;48.492;9.214;2023-06-26T13:33:42;33.00;17.20
578;DHT22;275;48.492;9.214;2023-06-26T13:36:10;32.60;18.10
578;DHT22;275;48.492;9.214;2023-06-26T13:38:37;32.70;17.70
578;DHT22;275;48.492;9.214;2023-06-26T13:41:04;33.00;17.00
578;DHT22;275;48.492;9.214;2023-06-26T13:43:30;33.10;16.90
578;DHT22;275;48.492;9.214;2023-06-26T13:45:57;33.30;17.20
578;DHT22;275;48.492;9.214;2023-06-26T13:48:24;32.80;17.80
578;DHT22;275;48.492;9.214;2023-06-26T13:50:53;32.60;18.30
578;DHT22;275;48.492;9.214;2023-06-26T13:53:20;32.80;18.10
578;DHT22;275;48.492;9.214;2023-06-26T13:55:47;32.70;18.10
578;DHT22;275;48.492;9.214;2023-06-26T13:58:14;32.20;18.80
578;DHT22;275;48.492;9.214;2023-06-26T14:00:41;32.40;18.40
578;DHT22;275;48.492;9.214;2023-06-26T14:03:10;32.60;18.30
578;DHT22;275;48.492;9.214;2023-06-26T14:05:37;32.30;18.60
578;DHT22;275;48.492;9.214;2023-06-26T14:08:08;32.50;18.50
578;DHT22;275;48.492;9.214;2023-06-26T14:10:36;32.50;18.10
578;DHT22;275;48.492;9.214;2023-06-26T14:13:03;32.50;18.20
578;DHT22;275;48.492;9.214;2023-06-26T14:15:30;32.30;18.40
578;DHT22;275;48.492;9.214;2023-06-26T14:17:57;32.50;18.00
578;DHT22;275;48.492;9.214;2023-06-26T14:20:24;32.30;18.20
578;DHT22;275;48.492;9.214;2023-06-26T14:22:53;32.20;18.10
578;DHT22;275;48.492;9.214;2023-06-26T14:25:21;32.40;17.90
578;DHT22;275;48.492;9.214;2023-06-26T14:27:48;32.30;17.40
578;DHT22;275;48.492;9.214;2023-06-26T14:30:14;32.40;17.70
578;DHT22;275;48.492;9.214;2023-06-26T14:32:41;32.00;18.60
578;DHT22;275;48.492;9.214;2023-06-26T14:35:08;31.80;18.70
578;DHT22;275;48.492;9.214;2023-06-26T14:37:36;31.60;19.00
578;DHT22;275;48.492;9.214;2023-06-26T14:40:06;31.60;18.60
578;DHT22;275;48.492;9.214;2023-06-26T14:42:34;31.60;18.30
578;DHT22;275;48.492;9.214;2023-06-26T14:45:01;31.90;18.10
578;DHT22;275;48.492;9.214;2023-06-26T14:47:28;31.60;18.10
578;DHT22;275;48.492;9.214;2023-06-26T14:49:55;31.50;18.20
578;DHT22;275;48.492;9.214;2023-06-26T14:52:22;31.40;18.40
578;DHT22;275;48.492;9.214;2023-06-26T14:54:49;31.50;18.30
578;DHT22;275;48.492;9.214;2023-06-26T14:57:15;32.00;17.40
578;DHT22;275;48.492;9.214;2023-06-26T14:59:44;32.10;16.80
578;DHT22;275;48.492;9.214;2023-06-26T15:02:11;31.90;17.10
578;DHT22;275;48.492;9.214;2023-06-26T15:04:38;31.90;17.10
578;DHT22;275;48.492;9.214;2023-06-26T15:07:05;31.50;17.50
578;DHT22;275;48.492;9.214;2023-06-26T15:09:32;31.10;18.30
578;DHT22;275;48.492;9.214;2023-06-26T15:11:59;31.10;18.20
578;DHT22;275;48.492;9.214;2023-06-26T15:14:27;31.70;17.70
578;DHT22;275;48.492;9.214;2023-06-26T15:16:55;31.80;17.50
578;DHT22;275;48.492;9.214;2023-06-26T15:19:22;32.20;17.00
578;DHT22;275;48.492;9.214;2023-06-26T15:21:48;31.70;17.20
578;DHT22;275;48.492;9.214;2023-06-26T15:24:15;31.60;16.90
578;DHT22;275;48.492;9.214;2023-06-26T15:26:42;31.60;17.10
578;DHT22;275;48.492;9.214;2023-06-26T15:29:09;31.60;16.70
578;DHT22;275;48.492;9.214;2023-06-26T15:31:36;31.20;16.90
578;DHT22;275;48.492;9.214;2023-06-26T15:34:04;31.10;17.20
578;DHT22;275;48.492;9.214;2023-06-26T15:36:31;31.00;17.50
578;DHT22;275;48.492;9.214;2023-06-26T15:38:58;31.20;17.40
578;DHT22;275;48.492;9.214;2023-06-26T15:41:25;30.90;17.70
578;DHT22;275;48.492;9.214;2023-06-26T15:43:54;30.90;17.90
578;DHT22;275;48.492;9.214;2023-06-26T15:46:21;30.70;18.00
578;DHT22;275;48.492;9.214;2023-06-26T15:48:48;30.80;18.10
578;DHT22;275;48.492;9.214;2023-06-26T15:51:16;30.90;17.90
578;DHT22;275;48.492;9.214;2023-06-26T15:53:43;30.60;17.90
578;DHT22;275;48.492;9.214;2023-06-26T15:56:11;30.40;18.40
578;DHT22;275;48.492;9.214;2023-06-26T15:58:38;30.50;18.40
578;DHT22;275;48.492;9.214;2023-06-26T16:01:08;30.70;18.10
578;DHT22;275;48.492;9.214;2023-06-26T16:03:35;30.90;18.10
578;DHT22;275;48.492;9.214;2023-06-26T16:06:02;30.90;18.10
578;DHT22;275;48.492;9.214;2023-06-26T16:08:30;31.10;17.80
578;DHT22;275;48.492;9.214;2023-06-26T16:10:57;31.10;17.80
578;DHT22;275;48.492;9.214;2023-06-26T16:13:24;30.80;18.00
578;DHT22;275;48.492;9.214;2023-06-26T16:15:51;30.70;17.90
578;DHT22;275;48.492;9.214;2023-06-26T16:18:18;30.60;18.40
578;DHT22;275;48.492;9.214;2023-06-26T16:20:46;30.40;18.70
578;DHT22;275;48.492;9.214;2023-06-26T16:23:13;30.40;19.20
578;DHT22;275;48.492;9.214;2023-06-26T16:25:41;30.00;19.70
578;DHT22;275;48.492;9.214;2023-06-26T16:28:08;30.00;19.20
578;DHT22;275;48.492;9.214;2023-06-26T16:30:35;30.10;19.00
578;DHT22;275;48.492;9.214;2023-06-26T16:33:02;29.80;19.40
578;DHT22;275;48.492;9.214;2023-06-26T16:35:29;29.70;19.40
578;DHT22;275;48.492;9.214;2023-06-26T16:37:59;29.70;19.50
578;DHT22;275;48.492;9.214;2023-06-26T16:40:27;29.70;19.60
578;DHT22;275;48.492;9.214;2023-06-26T16:42:55;29.50;19.70